sensor_id;sensor_type;location;lat;lon;timestamp;P1;durP1;ratioP1;P2;durP2;ratioP2
13218;SDS011;6674;49.152;11.918;2023-06-14T00:01:10;2.53;;;2.33;;
13218;SDS011;6674;49.152;11.918;2023-06-14T00:03:38;3.73;;;2.90;;
13218;SDS011;6674;49.152;11.918;2023-06-14T00:06:05;3.33;;;3.03;;
13218;SDS011;6674;49.152;11.918;2023-06-14T00:08:33;3.27;;;2.97;;
13218;SDS011;6674;49.152;11.918;2023-06-14T00:11:00;3.73;;;2.80;;
13218;SDS011;6674;49.152;11.918;2023-06-14T00:13:26;3.23;;;2.90;;
13218;SDS011;6674;49.152;11.918;2023-06-14T00:15:53;2.80;;;2.60;;
13218;SDS011;6674;49.152;11.918;2023-06-14T00:18:21;3.10;;;2.90;;
13218;SDS011;6674;49.152;11.918;2023-06-14T00:20:49;3.00;;;2.70;;
13218;SDS011;6674;49.152;11.918;2023-06-14T00:23:16;2.90;;;2.70;;
13218;SDS011;6674;49.152;11.918;2023-06-14T00:25:44;2.90;;;2.60;;
13218;SDS011;6674;49.152;11.918;2023-06-14T00:28:10;2.70;;;2.50;;
13218;SDS011;6674;49.152;11.918;2023-06-14T00:30:37;2.30;;;2.20;;
13218;SDS011;6674;49.152;11.918;2023-06-14T00:33:04;3.03;;;2.73;;
13218;SDS011;6674;49.152;11.918;2023-06-14T00:35:30;2.90;;;2.70;;
13218;SDS011;6674;49.152;11.918;2023-06-14T00:37:57;2.93;;;2.63;;
13218;SDS011;6674;49.152;11.918;2023-06-14T00:40:24;2.83;;;2.63;;
13218;SDS011;6674;49.152;11.918;2023-06-14T00:42:52;3.07;;;2.60;;
13218;SDS011;6674;49.152;11.918;2023-06-14T00:45:19;2.63;;;2.43;;
13218;SDS011;6674;49.152;11.918;2023-06-14T00:47:46;2.53;;;2.33;;
13218;SDS011;6674;49.152;11.918;2023-06-14T00:50:13;2.90;;;2.70;;
13218;SDS011;6674;49.152;11.918;2023-06-14T00:52:40;2.70;;;2.50;;
13218;SDS011;6674;49.152;11.918;2023-06-14T00:55:07;2.60;;;2.40;;
13218;SDS011;6674;49.152;11.918;2023-06-14T00:57:34;2.80;;;2.60;;
13218;SDS011;6674;49.152;11.918;2023-06-14T01:00:04;2.90;;;2.70;;
13218;SDS011;6674;49.152;11.918;2023-06-14T01:02:34;2.60;;;2.40;;
13218;SDS011;6674;49.152;11.918;2023-06-14T01:05:01;3.83;;;2.57;;
13218;SDS011;6674;49.152;11.918;2023-06-14T01:07:31;2.87;;;2.40;;
13218;SDS011;6674;49.152;11.918;2023-06-14T01:10:09;2.97;;;2.77;;
13218;SDS011;6674;49.152;11.918;2023-06-14T01:12:49;3.00;;;2.80;;
13218;SDS011;6674;49.152;11.918;2023-06-14T01:15:23;2.90;;;2.70;;
13218;SDS011;6674;49.152;11.918;2023-06-14T01:17:50;2.90;;;2.70;;
13218;SDS011;6674;49.152;11.918;2023-06-14T01:20:19;3.00;;;2.80;;
13218;SDS011;6674;49.152;11.918;2023-06-14T01:22:54;2.80;;;2.60;;
13218;SDS011;6674;49.152;11.918;2023-06-14T01:25:21;3.07;;;2.80;;
13218;SDS011;6674;49.152;11.918;2023-06-14T01:27:48;4.07;;;2.90;;
13218;SDS011;6674;49.152;11.918;2023-06-14T01:30:15;3.20;;;3.00;;
13218;SDS011;6674;49.152;11.918;2023-06-14T01:32:43;3.37;;;3.07;;
13218;SDS011;6674;49.152;11.918;2023-06-14T01:35:10;3.13;;;2.63;;
13218;SDS011;6674;49.152;11.918;2023-06-14T01:37:37;3.20;;;2.90;;
13218;SDS011;6674;49.152;11.918;2023-06-14T01:40:07;2.90;;;2.70;;
13218;SDS011;6674;49.152;11.918;2023-06-14T01:42:36;3.17;;;2.97;;
13218;SDS011;6674;49.152;11.918;2023-06-14T01:45:04;3.33;;;3.03;;
13218;SDS011;6674;49.152;11.918;2023-06-14T01:47:32;3.93;;;2.90;;
13218;SDS011;6674;49.152;11.918;2023-06-14T01:49:59;2.80;;;2.60;;
13218;SDS011;6674;49.152;11.918;2023-06-14T01:52:26;3.20;;;3.00;;
13218;SDS011;6674;49.152;11.918;2023-06-14T01:54:53;2.83;;;2.63;;
13218;SDS011;6674;49.152;11.918;2023-06-14T01:57:20;3.10;;;2.80;;
13218;SDS011;6674;49.152;11.918;2023-06-14T01:59:48;3.03;;;2.83;;
13218;SDS011;6674;49.152;11.918;2023-06-14T02:02:15;2.70;;;2.50;;
13218;SDS011;6674;49.152;11.918;2023-06-14T02:04:42;3.13;;;2.93;;
13218;SDS011;6674;49.152;11.918;2023-06-14T02:07:09;2.80;;;2.60;;
13218;SDS011;6674;49.152;11.918;2023-06-14T02:09:35;2.67;;;2.47;;
13218;SDS011;6674;49.152;11.918;2023-06-14T02:12:02;2.93;;;2.73;;
13218;SDS011;6674;49.152;11.918;2023-06-14T02:14:30;3.77;;;2.77;;
13218;SDS011;6674;49.152;11.918;2023-06-14T02:16:57;2.97;;;2.77;;
13218;SDS011;6674;49.152;11.918;2023-06-14T02:19:23;2.90;;;2.70;;
13218;SDS011;6674;49.152;11.918;2023-06-14T02:21:50;3.20;;;2.90;;
13218;SDS011;6674;49.152;11.918;2023-06-14T02:24:17;3.23;;;2.90;;
13218;SDS011;6674;49.152;11.918;2023-06-14T02:26:43;2.90;;;2.70;;
13218;SDS011;6674;49.152;11.918;2023-06-14T02:29:10;3.10;;;2.80;;
13218;SDS011;6674;49.152;11.918;2023-06-14T02:31:41;3.03;;;2.83;;
13218;SDS011;6674;49.152;11.918;2023-06-14T02:34:07;3.00;;;2.80;;
13218;SDS011;6674;49.152;11.918;2023-06-14T02:36:34;3.10;;;2.80;;
13218;SDS011;6674;49.152;11.918;2023-06-14T02:39:06;2.90;;;2.70;;
13218;SDS011;6674;49.152;11.918;2023-06-14T02:41:34;3.37;;;2.60;;
13218;SDS011;6674;49.152;11.918;2023-06-14T02:44:01;3.00;;;2.80;;
13218;SDS011;6674;49.152;11.918;2023-06-14T02:46:27;2.93;;;2.73;;
13218;SDS011;6674;49.152;11.918;2023-06-14T02:48:55;3.00;;;2.80;;
13218;SDS011;6674;49.152;11.918;2023-06-14T02:51:22;3.07;;;2.77;;
13218;SDS011;6674;49.152;11.918;2023-06-14T02:53:48;3.20;;;2.90;;
13218;SDS011;6674;49.152;11.918;2023-06-14T02:56:15;3.03;;;2.80;;
13218;SDS011;6674;49.152;11.918;2023-06-14T02:58:44;3.17;;;2.93;;
13218;SDS011;6674;49.152;11.918;2023-06-14T03:01:11;3.10;;;2.90;;
13218;SDS011;6674;49.152;11.918;2023-06-14T03:03:38;3.00;;;2.80;;
13218;SDS011;6674;49.152;11.918;2023-06-14T03:06:06;3.17;;;2.87;;
13218;SDS011;6674;49.152;11.918;2023-06-14T03:08:33;3.20;;;3.00;;
13218;SDS011;6674;49.152;11.918;2023-06-14T03:11:03;3.13;;;2.93;;
13218;SDS011;6674;49.152;11.918;2023-06-14T03:13:31;3.00;;;2.80;;
13218;SDS011;6674;49.152;11.918;2023-06-14T03:15:58;2.90;;;2.70;;
13218;SDS011;6674;49.152;11.918;2023-06-14T03:18:27;3.20;;;3.00;;
13218;SDS011;6674;49.152;11.918;2023-06-14T03:20:54;4.10;;;3.37;;
13218;SDS011;6674;49.152;11.918;2023-06-14T03:23:23;3.70;;;3.40;;
13218;SDS011;6674;49.152;11.918;2023-06-14T03:25:50;3.10;;;2.90;;
13218;SDS011;6674;49.152;11.918;2023-06-14T03:28:17;3.70;;;2.90;;
13218;SDS011;6674;49.152;11.918;2023-06-14T03:30:43;3.00;;;2.80;;
13218;SDS011;6674;49.152;11.918;2023-06-14T03:33:10;3.03;;;2.83;;
13218;SDS011;6674;49.152;11.918;2023-06-14T03:35:39;3.30;;;3.00;;
13218;SDS011;6674;49.152;11.918;2023-06-14T03:38:06;3.33;;;3.03;;
13218;SDS011;6674;49.152;11.918;2023-06-14T03:40:34;3.37;;;3.17;;
13218;SDS011;6674;49.152;11.918;2023-06-14T03:43:01;3.83;;;3.00;;
13218;SDS011;6674;49.152;11.918;2023-06-14T03:45:27;3.20;;;3.00;;
13218;SDS011;6674;49.152;11.918;2023-06-14T03:47:54;2.70;;;2.50;;
13218;SDS011;6674;49.152;11.918;2023-06-14T03:50:21;2.87;;;2.63;;
13218;SDS011;6674;49.152;11.918;2023-06-14T03:52:48;3.20;;;2.90;;
13218;SDS011;6674;49.152;11.918;2023-06-14T03:55:15;3.70;;;2.80;;
13218;SDS011;6674;49.152;11.918;2023-06-14T03:57:43;3.60;;;3.30;;
13218;SDS011;6674;49.152;11.918;2023-06-14T04:00:10;3.73;;;3.40;;
13218;SDS011;6674;49.152;11.918;2023-06-14T04:02:37;3.57;;;3.27;;
13218;SDS011;6674;49.152;11.918;2023-06-14T04:05:05;3.40;;;3.10;;
13218;SDS011;6674;49.152;11.918;2023-06-14T04:07:33;3.23;;;3.03;;
13218;SDS011;6674;49.152;11.918;2023-06-14T04:10:06;3.50;;;3.17;;
13218;SDS011;6674;49.152;11.918;2023-06-14T04:12:33;3.07;;;2.87;;
13218;SDS011;6674;49.152;11.918;2023-06-14T04:15:01;3.57;;;3.27;;
13218;SDS011;6674;49.152;11.918;2023-06-14T04:17:28;3.10;;;2.90;;
13218;SDS011;6674;49.152;11.918;2023-06-14T04:19:55;4.00;;;3.20;;
13218;SDS011;6674;49.152;11.918;2023-06-14T04:22:23;3.10;;;2.90;;
13218;SDS011;6674;49.152;11.918;2023-06-14T04:24:53;2.90;;;2.70;;
13218;SDS011;6674;49.152;11.918;2023-06-14T04:27:21;2.90;;;2.70;;
13218;SDS011;6674;49.152;11.918;2023-06-14T04:29:50;3.40;;;3.10;;
13218;SDS011;6674;49.152;11.918;2023-06-14T04:32:22;4.90;;;3.47;;
13218;SDS011;6674;49.152;11.918;2023-06-14T04:34:51;3.40;;;3.20;;
13218;SDS011;6674;49.152;11.918;2023-06-14T04:37:18;3.20;;;2.90;;
13218;SDS011;6674;49.152;11.918;2023-06-14T04:39:46;3.53;;;3.10;;
13218;SDS011;6674;49.152;11.918;2023-06-14T04:42:12;3.23;;;2.93;;
13218;SDS011;6674;49.152;11.918;2023-06-14T04:44:39;3.70;;;3.40;;
13218;SDS011;6674;49.152;11.918;2023-06-14T04:47:06;4.37;;;3.27;;
13218;SDS011;6674;49.152;11.918;2023-06-14T04:49:35;3.50;;;3.20;;
13218;SDS011;6674;49.152;11.918;2023-06-14T04:52:01;3.40;;;3.10;;
13218;SDS011;6674;49.152;11.918;2023-06-14T04:54:28;3.70;;;3.40;;
13218;SDS011;6674;49.152;11.918;2023-06-14T04:56:56;3.50;;;3.20;;
13218;SDS011;6674;49.152;11.918;2023-06-14T04:59:23;3.33;;;3.03;;
13218;SDS011;6674;49.152;11.918;2023-06-14T05:01:50;3.57;;;3.27;;
13218;SDS011;6674;49.152;11.918;2023-06-14T05:04:16;3.40;;;3.20;;
13218;SDS011;6674;49.152;11.918;2023-06-14T05:06:45;3.57;;;3.20;;
13218;SDS011;6674;49.152;11.918;2023-06-14T05:09:13;3.50;;;3.20;;
13218;SDS011;6674;49.152;11.918;2023-06-14T05:11:40;3.90;;;3.57;;
13218;SDS011;6674;49.152;11.918;2023-06-14T05:14:09;3.50;;;3.27;;
13218;SDS011;6674;49.152;11.918;2023-06-14T05:16:35;3.80;;;3.40;;
13218;SDS011;6674;49.152;11.918;2023-06-14T05:19:02;3.93;;;3.63;;
13218;SDS011;6674;49.152;11.918;2023-06-14T05:21:29;3.90;;;3.60;;
13218;SDS011;6674;49.152;11.918;2023-06-14T05:23:58;3.43;;;3.13;;
13218;SDS011;6674;49.152;11.918;2023-06-14T05:26:25;3.80;;;3.50;;
13218;SDS011;6674;49.152;11.918;2023-06-14T05:28:53;4.10;;;3.80;;
13218;SDS011;6674;49.152;11.918;2023-06-14T05:31:21;4.10;;;3.70;;
13218;SDS011;6674;49.152;11.918;2023-06-14T05:33:48;3.37;;;3.17;;
13218;SDS011;6674;49.152;11.918;2023-06-14T05:36:15;3.70;;;3.40;;
13218;SDS011;6674;49.152;11.918;2023-06-14T05:38:41;3.70;;;3.40;;
13218;SDS011;6674;49.152;11.918;2023-06-14T05:41:09;4.20;;;3.90;;
13218;SDS011;6674;49.152;11.918;2023-06-14T05:43:36;4.90;;;4.43;;
13218;SDS011;6674;49.152;11.918;2023-06-14T05:46:02;3.97;;;3.67;;
13218;SDS011;6674;49.152;11.918;2023-06-14T05:48:30;4.27;;;3.93;;
13218;SDS011;6674;49.152;11.918;2023-06-14T05:50:56;4.03;;;3.73;;
13218;SDS011;6674;49.152;11.918;2023-06-14T05:53:23;4.27;;;3.87;;
13218;SDS011;6674;49.152;11.918;2023-06-14T05:55:50;4.90;;;3.70;;
13218;SDS011;6674;49.152;11.918;2023-06-14T05:58:21;4.37;;;4.00;;
13218;SDS011;6674;49.152;11.918;2023-06-14T06:00:48;5.23;;;4.30;;
13218;SDS011;6674;49.152;11.918;2023-06-14T06:03:15;4.80;;;4.30;;
13218;SDS011;6674;49.152;11.918;2023-06-14T06:05:41;4.30;;;3.90;;
13218;SDS011;6674;49.152;11.918;2023-06-14T06:08:08;4.00;;;3.70;;
13218;SDS011;6674;49.152;11.918;2023-06-14T06:10:34;5.03;;;4.50;;
13218;SDS011;6674;49.152;11.918;2023-06-14T06:13:01;4.37;;;3.97;;
13218;SDS011;6674;49.152;11.918;2023-06-14T06:15:29;3.60;;;3.30;;
13218;SDS011;6674;49.152;11.918;2023-06-14T06:17:56;4.07;;;3.77;;
13218;SDS011;6674;49.152;11.918;2023-06-14T06:20:22;4.47;;;4.13;;
13218;SDS011;6674;49.152;11.918;2023-06-14T06:22:53;4.83;;;4.30;;
13218;SDS011;6674;49.152;11.918;2023-06-14T06:25:19;4.20;;;3.80;;
13218;SDS011;6674;49.152;11.918;2023-06-14T06:27:47;4.70;;;4.30;;
13218;SDS011;6674;49.152;11.918;2023-06-14T06:30:14;4.07;;;3.73;;
13218;SDS011;6674;49.152;11.918;2023-06-14T06:32:42;4.40;;;4.00;;
13218;SDS011;6674;49.152;11.918;2023-06-14T06:35:08;4.27;;;3.97;;
13218;SDS011;6674;49.152;11.918;2023-06-14T06:37:36;4.23;;;3.83;;
13218;SDS011;6674;49.152;11.918;2023-06-14T06:40:02;4.10;;;3.80;;
13218;SDS011;6674;49.152;11.918;2023-06-14T06:42:30;3.90;;;3.60;;
13218;SDS011;6674;49.152;11.918;2023-06-14T06:44:57;4.47;;;4.07;;
13218;SDS011;6674;49.152;11.918;2023-06-14T06:47:24;4.83;;;3.73;;
13218;SDS011;6674;49.152;11.918;2023-06-14T06:49:52;4.33;;;3.93;;
13218;SDS011;6674;49.152;11.918;2023-06-14T06:52:19;4.50;;;4.10;;
13218;SDS011;6674;49.152;11.918;2023-06-14T06:54:45;4.30;;;3.90;;
13218;SDS011;6674;49.152;11.918;2023-06-14T06:57:12;4.00;;;3.47;;
13218;SDS011;6674;49.152;11.918;2023-06-14T06:59:39;4.80;;;3.67;;
13218;SDS011;6674;49.152;11.918;2023-06-14T07:02:05;3.93;;;3.63;;
13218;SDS011;6674;49.152;11.918;2023-06-14T07:04:32;4.03;;;3.60;;
13218;SDS011;6674;49.152;11.918;2023-06-14T07:07:00;4.13;;;3.83;;
13218;SDS011;6674;49.152;11.918;2023-06-14T07:09:27;4.10;;;3.80;;
13218;SDS011;6674;49.152;11.918;2023-06-14T07:11:54;4.13;;;3.60;;
13218;SDS011;6674;49.152;11.918;2023-06-14T07:14:20;4.20;;;3.80;;
13218;SDS011;6674;49.152;11.918;2023-06-14T07:16:48;3.93;;;3.53;;
13218;SDS011;6674;49.152;11.918;2023-06-14T07:19:14;4.00;;;3.70;;
13218;SDS011;6674;49.152;11.918;2023-06-14T07:21:42;4.37;;;3.60;;
13218;SDS011;6674;49.152;11.918;2023-06-14T07:24:10;4.33;;;4.00;;
13218;SDS011;6674;49.152;11.918;2023-06-14T07:26:36;3.90;;;3.60;;
13218;SDS011;6674;49.152;11.918;2023-06-14T07:29:03;4.30;;;3.90;;
13218;SDS011;6674;49.152;11.918;2023-06-14T07:31:30;3.43;;;3.13;;
13218;SDS011;6674;49.152;11.918;2023-06-14T07:33:56;4.07;;;3.77;;
13218;SDS011;6674;49.152;11.918;2023-06-14T07:36:23;3.33;;;3.13;;
13218;SDS011;6674;49.152;11.918;2023-06-14T07:38:49;4.27;;;3.97;;
13218;SDS011;6674;49.152;11.918;2023-06-14T07:41:18;3.90;;;3.50;;
13218;SDS011;6674;49.152;11.918;2023-06-14T07:43:44;3.80;;;3.47;;
13218;SDS011;6674;49.152;11.918;2023-06-14T07:46:11;4.03;;;3.70;;
13218;SDS011;6674;49.152;11.918;2023-06-14T07:48:37;4.00;;;3.70;;
13218;SDS011;6674;49.152;11.918;2023-06-14T07:51:04;3.93;;;3.63;;
13218;SDS011;6674;49.152;11.918;2023-06-14T07:53:31;3.57;;;3.27;;
13218;SDS011;6674;49.152;11.918;2023-06-14T07:55:57;3.70;;;3.40;;
13218;SDS011;6674;49.152;11.918;2023-06-14T07:58:26;3.83;;;3.53;;
13218;SDS011;6674;49.152;11.918;2023-06-14T08:00:53;3.80;;;3.50;;
13218;SDS011;6674;49.152;11.918;2023-06-14T08:03:20;4.27;;;3.87;;
13218;SDS011;6674;49.152;11.918;2023-06-14T08:05:47;3.83;;;3.53;;
13218;SDS011;6674;49.152;11.918;2023-06-14T08:08:14;3.60;;;3.30;;
13218;SDS011;6674;49.152;11.918;2023-06-14T08:10:41;3.80;;;3.40;;
13218;SDS011;6674;49.152;11.918;2023-06-14T08:13:08;3.60;;;3.40;;
13218;SDS011;6674;49.152;11.918;2023-06-14T08:15:36;3.70;;;3.40;;
13218;SDS011;6674;49.152;11.918;2023-06-14T08:18:03;3.57;;;3.27;;
13218;SDS011;6674;49.152;11.918;2023-06-14T08:20:30;3.67;;;3.37;;
13218;SDS011;6674;49.152;11.918;2023-06-14T08:22:57;3.60;;;3.30;;
13218;SDS011;6674;49.152;11.918;2023-06-14T08:25:23;3.70;;;3.40;;
13218;SDS011;6674;49.152;11.918;2023-06-14T08:27:51;3.43;;;3.13;;
13218;SDS011;6674;49.152;11.918;2023-06-14T08:30:17;3.70;;;3.40;;
13218;SDS011;6674;49.152;11.918;2023-06-14T08:32:46;3.30;;;3.10;;
13218;SDS011;6674;49.152;11.918;2023-06-14T08:35:12;3.30;;;3.10;;
13218;SDS011;6674;49.152;11.918;2023-06-14T08:37:39;3.67;;;3.37;;
13218;SDS011;6674;49.152;11.918;2023-06-14T08:40:07;3.30;;;3.00;;
13218;SDS011;6674;49.152;11.918;2023-06-14T08:42:44;3.67;;;3.17;;
13218;SDS011;6674;49.152;11.918;2023-06-14T08:45:12;3.30;;;3.00;;
13218;SDS011;6674;49.152;11.918;2023-06-14T08:47:38;3.30;;;3.00;;
13218;SDS011;6674;49.152;11.918;2023-06-14T08:50:08;3.40;;;3.20;;
13218;SDS011;6674;49.152;11.918;2023-06-14T08:52:36;3.27;;;3.00;;
13218;SDS011;6674;49.152;11.918;2023-06-14T08:55:05;3.50;;;3.20;;
13218;SDS011;6674;49.152;11.918;2023-06-14T08:57:33;3.20;;;2.90;;
13218;SDS011;6674;49.152;11.918;2023-06-14T09:00:03;4.37;;;3.00;;
13218;SDS011;6674;49.152;11.918;2023-06-14T09:02:36;3.40;;;3.20;;
13218;SDS011;6674;49.152;11.918;2023-06-14T09:05:03;3.00;;;2.70;;
13218;SDS011;6674;49.152;11.918;2023-06-14T09:07:32;3.87;;;3.20;;
13218;SDS011;6674;49.152;11.918;2023-06-14T09:10:06;3.33;;;3.03;;
13218;SDS011;6674;49.152;11.918;2023-06-14T09:12:34;3.83;;;3.53;;
13218;SDS011;6674;49.152;11.918;2023-06-14T09:15:01;3.20;;;3.00;;
13218;SDS011;6674;49.152;11.918;2023-06-14T09:17:31;3.67;;;3.37;;
13218;SDS011;6674;49.152;11.918;2023-06-14T09:19:58;3.70;;;3.40;;
13218;SDS011;6674;49.152;11.918;2023-06-14T09:22:26;4.17;;;3.43;;
13218;SDS011;6674;49.152;11.918;2023-06-14T09:24:57;3.83;;;3.53;;
13218;SDS011;6674;49.152;11.918;2023-06-14T09:27:27;3.80;;;3.50;;
13218;SDS011;6674;49.152;11.918;2023-06-14T09:29:54;3.70;;;3.40;;
13218;SDS011;6674;49.152;11.918;2023-06-14T09:32:21;3.20;;;3.00;;
13218;SDS011;6674;49.152;11.918;2023-06-14T09:34:48;3.23;;;3.00;;
13218;SDS011;6674;49.152;11.918;2023-06-14T09:37:26;2.80;;;2.60;;
13218;SDS011;6674;49.152;11.918;2023-06-14T09:39:53;3.47;;;3.17;;
13218;SDS011;6674;49.152;11.918;2023-06-14T09:42:21;2.77;;;2.57;;
13218;SDS011;6674;49.152;11.918;2023-06-14T09:44:51;3.50;;;3.20;;
13218;SDS011;6674;49.152;11.918;2023-06-14T09:47:19;3.20;;;3.00;;
13218;SDS011;6674;49.152;11.918;2023-06-14T09:49:47;3.70;;;3.10;;
13218;SDS011;6674;49.152;11.918;2023-06-14T09:52:14;2.93;;;2.73;;
13218;SDS011;6674;49.152;11.918;2023-06-14T09:54:43;3.33;;;3.03;;
13218;SDS011;6674;49.152;11.918;2023-06-14T09:57:12;3.07;;;2.80;;
13218;SDS011;6674;49.152;11.918;2023-06-14T09:59:41;2.93;;;2.73;;
13218;SDS011;6674;49.152;11.918;2023-06-14T10:02:11;3.23;;;3.03;;
13218;SDS011;6674;49.152;11.918;2023-06-14T10:04:46;3.30;;;3.10;;
13218;SDS011;6674;49.152;11.918;2023-06-14T10:07:17;3.53;;;3.23;;
13218;SDS011;6674;49.152;11.918;2023-06-14T10:09:46;3.50;;;3.20;;
13218;SDS011;6674;49.152;11.918;2023-06-14T10:12:15;3.73;;;3.43;;
13218;SDS011;6674;49.152;11.918;2023-06-14T10:14:47;4.27;;;3.53;;
13218;SDS011;6674;49.152;11.918;2023-06-14T10:17:17;3.50;;;3.20;;
13218;SDS011;6674;49.152;11.918;2023-06-14T10:19:53;4.60;;;3.50;;
13218;SDS011;6674;49.152;11.918;2023-06-14T10:22:30;2.93;;;2.70;;
13218;SDS011;6674;49.152;11.918;2023-06-14T10:25:02;3.23;;;3.03;;
13218;SDS011;6674;49.152;11.918;2023-06-14T10:27:32;3.17;;;2.90;;
13218;SDS011;6674;49.152;11.918;2023-06-14T10:30:04;3.30;;;3.00;;
13218;SDS011;6674;49.152;11.918;2023-06-14T10:32:33;3.67;;;3.40;;
13218;SDS011;6674;49.152;11.918;2023-06-14T10:35:01;3.20;;;3.00;;
13218;SDS011;6674;49.152;11.918;2023-06-14T10:37:30;3.50;;;3.20;;
13218;SDS011;6674;49.152;11.918;2023-06-14T10:39:57;3.57;;;3.27;;
13218;SDS011;6674;49.152;11.918;2023-06-14T10:42:27;3.57;;;3.27;;
13218;SDS011;6674;49.152;11.918;2023-06-14T10:44:57;3.40;;;3.10;;
13218;SDS011;6674;49.152;11.918;2023-06-14T10:47:27;3.37;;;3.10;;
13218;SDS011;6674;49.152;11.918;2023-06-14T10:49:55;3.43;;;3.23;;
13218;SDS011;6674;49.152;11.918;2023-06-14T10:52:24;3.20;;;2.97;;
13218;SDS011;6674;49.152;11.918;2023-06-14T10:55:04;3.70;;;3.40;;
13218;SDS011;6674;49.152;11.918;2023-06-14T10:57:36;3.17;;;2.97;;
13218;SDS011;6674;49.152;11.918;2023-06-14T11:00:04;3.53;;;3.30;;
13218;SDS011;6674;49.152;11.918;2023-06-14T11:02:45;3.60;;;3.23;;
13218;SDS011;6674;49.152;11.918;2023-06-14T11:05:21;3.20;;;3.00;;
13218;SDS011;6674;49.152;11.918;2023-06-14T11:07:55;3.83;;;3.53;;
13218;SDS011;6674;49.152;11.918;2023-06-14T11:10:35;3.30;;;3.00;;
13218;SDS011;6674;49.152;11.918;2023-06-14T11:13:03;3.30;;;3.00;;
13218;SDS011;6674;49.152;11.918;2023-06-14T11:15:30;3.47;;;3.20;;
13218;SDS011;6674;49.152;11.918;2023-06-14T11:17:58;3.13;;;2.83;;
13218;SDS011;6674;49.152;11.918;2023-06-14T11:20:29;3.50;;;3.20;;
13218;SDS011;6674;49.152;11.918;2023-06-14T11:22:57;3.20;;;2.90;;
13218;SDS011;6674;49.152;11.918;2023-06-14T11:25:24;3.30;;;3.00;;
13218;SDS011;6674;49.152;11.918;2023-06-14T11:27:53;4.50;;;3.00;;
13218;SDS011;6674;49.152;11.918;2023-06-14T11:30:20;3.43;;;3.17;;
13218;SDS011;6674;49.152;11.918;2023-06-14T11:32:48;3.60;;;3.30;;
13218;SDS011;6674;49.152;11.918;2023-06-14T11:35:18;3.50;;;3.20;;
13218;SDS011;6674;49.152;11.918;2023-06-14T11:37:45;3.50;;;3.20;;
13218;SDS011;6674;49.152;11.918;2023-06-14T11:40:13;3.40;;;3.10;;
13218;SDS011;6674;49.152;11.918;2023-06-14T11:42:39;2.90;;;2.70;;
13218;SDS011;6674;49.152;11.918;2023-06-14T11:45:07;3.30;;;3.03;;
13218;SDS011;6674;49.152;11.918;2023-06-14T11:47:35;3.37;;;3.07;;
13218;SDS011;6674;49.152;11.918;2023-06-14T11:50:03;3.50;;;3.20;;
13218;SDS011;6674;49.152;11.918;2023-06-14T11:52:32;3.03;;;2.80;;
13218;SDS011;6674;49.152;11.918;2023-06-14T11:54:59;2.70;;;2.50;;
13218;SDS011;6674;49.152;11.918;2023-06-14T11:57:29;3.55;;;2.80;;
13218;SDS011;6674;49.152;11.918;2023-06-14T11:59:56;3.17;;;2.92;;
13218;SDS011;6674;49.152;11.918;2023-06-14T12:02:22;3.28;;;2.97;;
13218;SDS011;6674;49.152;11.918;2023-06-14T12:04:50;2.90;;;2.70;;
13218;SDS011;6674;49.152;11.918;2023-06-14T12:07:17;3.50;;;3.20;;
13218;SDS011;6674;49.152;11.918;2023-06-14T12:12:36;3.33;;;3.03;;
13218;SDS011;6674;49.152;11.918;2023-06-14T12:15:03;3.20;;;2.97;;
13218;SDS011;6674;49.152;11.918;2023-06-14T12:17:32;3.03;;;2.83;;
13218;SDS011;6674;49.152;11.918;2023-06-14T12:20:04;3.30;;;2.63;;
13218;SDS011;6674;49.152;11.918;2023-06-14T12:22:36;2.80;;;2.60;;
13218;SDS011;6674;49.152;11.918;2023-06-14T12:25:02;3.58;;;2.90;;
13218;SDS011;6674;49.152;11.918;2023-06-14T12:27:31;3.47;;;2.88;;
13218;SDS011;6674;49.152;11.918;2023-06-14T12:29:58;3.00;;;2.80;;
13218;SDS011;6674;49.152;11.918;2023-06-14T12:32:25;3.10;;;2.80;;
13218;SDS011;6674;49.152;11.918;2023-06-14T12:34:52;3.73;;;3.23;;
13218;SDS011;6674;49.152;11.918;2023-06-14T12:37:19;2.90;;;2.70;;
13218;SDS011;6674;49.152;11.918;2023-06-14T12:39:45;3.38;;;3.08;;
13218;SDS011;6674;49.152;11.918;2023-06-14T12:42:12;3.00;;;2.80;;
13218;SDS011;6674;49.152;11.918;2023-06-14T12:44:41;3.67;;;3.38;;
13218;SDS011;6674;49.152;11.918;2023-06-14T12:47:07;3.40;;;3.20;;
13218;SDS011;6674;49.152;11.918;2023-06-14T12:49:34;2.83;;;2.60;;
13218;SDS011;6674;49.152;11.918;2023-06-14T12:52:01;3.00;;;2.80;;
13218;SDS011;6674;49.152;11.918;2023-06-14T12:54:27;3.08;;;2.78;;
13218;SDS011;6674;49.152;11.918;2023-06-14T12:56:54;3.03;;;2.67;;
13218;SDS011;6674;49.152;11.918;2023-06-14T12:59:21;3.47;;;2.85;;
13218;SDS011;6674;49.152;11.918;2023-06-14T13:01:50;2.80;;;2.60;;
13218;SDS011;6674;49.152;11.918;2023-06-14T13:04:18;3.92;;;2.80;;
13218;SDS011;6674;49.152;11.918;2023-06-14T13:06:45;2.95;;;2.75;;
13218;SDS011;6674;49.152;11.918;2023-06-14T13:09:12;2.90;;;2.70;;
13218;SDS011;6674;49.152;11.918;2023-06-14T13:11:40;2.88;;;2.63;;
13218;SDS011;6674;49.152;11.918;2023-06-14T13:14:10;3.25;;;2.95;;
13218;SDS011;6674;49.152;11.918;2023-06-14T13:16:37;4.03;;;3.30;;
13218;SDS011;6674;49.152;11.918;2023-06-14T13:19:05;3.05;;;2.80;;
13218;SDS011;6674;49.152;11.918;2023-06-14T13:21:31;2.80;;;2.60;;
13218;SDS011;6674;49.152;11.918;2023-06-14T13:23:58;2.97;;;2.78;;
13218;SDS011;6674;49.152;11.918;2023-06-14T13:26:25;2.95;;;2.75;;
13218;SDS011;6674;49.152;11.918;2023-06-14T13:28:52;2.90;;;2.70;;
13218;SDS011;6674;49.152;11.918;2023-06-14T13:31:19;3.45;;;3.20;;
13218;SDS011;6674;49.152;11.918;2023-06-14T13:33:45;6.57;;;5.97;;
13218;SDS011;6674;49.152;11.918;2023-06-14T13:36:13;6.25;;;5.75;;
13218;SDS011;6674;49.152;11.918;2023-06-14T13:38:40;3.65;;;3.35;;
13218;SDS011;6674;49.152;11.918;2023-06-14T13:41:06;2.90;;;2.70;;
13218;SDS011;6674;49.152;11.918;2023-06-14T13:43:33;3.40;;;3.10;;
13218;SDS011;6674;49.152;11.918;2023-06-14T13:45:59;2.80;;;2.60;;
13218;SDS011;6674;49.152;11.918;2023-06-14T13:48:26;2.83;;;2.63;;
13218;SDS011;6674;49.152;11.918;2023-06-14T13:50:53;6.65;;;5.97;;
13218;SDS011;6674;49.152;11.918;2023-06-14T13:53:21;5.47;;;4.97;;
13218;SDS011;6674;49.152;11.918;2023-06-14T13:55:47;3.63;;;3.33;;
13218;SDS011;6674;49.152;11.918;2023-06-14T13:58:14;2.85;;;2.65;;
13218;SDS011;6674;49.152;11.918;2023-06-14T14:00:40;2.85;;;2.65;;
13218;SDS011;6674;49.152;11.918;2023-06-14T14:03:07;2.90;;;2.70;;
13218;SDS011;6674;49.152;11.918;2023-06-14T14:05:34;3.72;;;2.97;;
13218;SDS011;6674;49.152;11.918;2023-06-14T14:08:00;3.00;;;2.80;;
13218;SDS011;6674;49.152;11.918;2023-06-14T14:10:29;3.03;;;2.83;;
13218;SDS011;6674;49.152;11.918;2023-06-14T14:12:55;2.60;;;2.40;;
13218;SDS011;6674;49.152;11.918;2023-06-14T14:15:22;2.88;;;2.65;;
13218;SDS011;6674;49.152;11.918;2023-06-14T14:17:49;3.22;;;2.97;;
13218;SDS011;6674;49.152;11.918;2023-06-14T14:20:15;3.10;;;2.60;;
13218;SDS011;6674;49.152;11.918;2023-06-14T14:22:42;2.88;;;2.67;;
13218;SDS011;6674;49.152;11.918;2023-06-14T14:25:09;3.20;;;2.90;;
13218;SDS011;6674;49.152;11.918;2023-06-14T14:27:37;2.90;;;2.70;;
13218;SDS011;6674;49.152;11.918;2023-06-14T14:30:05;2.80;;;2.60;;
13218;SDS011;6674;49.152;11.918;2023-06-14T14:32:32;3.28;;;3.00;;
13218;SDS011;6674;49.152;11.918;2023-06-14T14:34:59;2.60;;;2.40;;
13218;SDS011;6674;49.152;11.918;2023-06-14T14:37:25;3.20;;;2.63;;
13218;SDS011;6674;49.152;11.918;2023-06-14T14:39:52;3.33;;;2.80;;
13218;SDS011;6674;49.152;11.918;2023-06-14T14:42:19;2.80;;;2.60;;
13218;SDS011;6674;49.152;11.918;2023-06-14T14:44:47;2.53;;;2.38;;
13218;SDS011;6674;49.152;11.918;2023-06-14T14:47:13;3.08;;;2.88;;
13218;SDS011;6674;49.152;11.918;2023-06-14T14:49:40;2.85;;;2.65;;
13218;SDS011;6674;49.152;11.918;2023-06-14T14:52:07;2.35;;;2.15;;
13218;SDS011;6674;49.152;11.918;2023-06-14T14:54:34;2.78;;;2.58;;